createdAt,value
2018-07-12T00:00:11.996Z,14.70
2018-07-12T00:02:40.609Z,14.70
2018-07-12T00:05:10.140Z,14.60
2018-07-12T00:07:38.797Z,14.70
2018-07-12T00:10:07.367Z,14.80
2018-07-12T00:12:35.960Z,14.80
2018-07-12T00:15:04.549Z,14.80
2018-07-12T00:17:33.140Z,14.80
2018-07-12T00:20:01.765Z,14.80
2018-07-12T00:22:30.395Z,14.80
2018-07-12T00:24:59.199Z,14.80
2018-07-12T00:27:27.783Z,14.70
2018-07-12T00:29:56.343Z,14.70
2018-07-12T00:32:25.033Z,14.60
2018-07-12T00:34:54.162Z,14.60
2018-07-12T00:37:23.066Z,14.60
2018-07-12T00:39:52.253Z,14.60
2018-07-12T00:42:21.463Z,14.70
2018-07-12T00:44:50.234Z,14.70
2018-07-12T00:47:18.838Z,14.80
2018-07-12T00:49:47.946Z,14.90
2018-07-12T00:52:16.548Z,14.90
2018-07-12T00:54:45.122Z,14.80
2018-07-12T00:57:14.867Z,14.80
2018-07-12T00:59:43.447Z,14.90
2018-07-12T01:02:12.034Z,14.90
2018-07-12T01:04:40.611Z,15.00
2018-07-12T01:07:09.196Z,15.00
2018-07-12T01:09:37.770Z,14.90
2018-07-12T01:12:06.435Z,14.90
2018-07-12T01:14:35.014Z,14.90
2018-07-12T01:17:03.670Z,15.00
2018-07-12T01:19:32.404Z,15.00
2018-07-12T01:22:01.019Z,14.90
2018-07-12T01:24:29.584Z,14.90
2018-07-12T01:26:58.179Z,14.80
2018-07-12T01:29:26.723Z,14.80
2018-07-12T01:31:55.331Z,14.90
2018-07-12T01:34:23.876Z,14.90
2018-07-12T01:36:52.510Z,14.90
2018-07-12T01:39:21.077Z,14.90
2018-07-12T01:41:49.667Z,15.00
2018-07-12T01:44:18.218Z,15.10
2018-07-12T01:46:46.819Z,15.10
2018-07-12T01:49:15.375Z,15.10
2018-07-12T01:51:43.956Z,15.10
2018-07-12T01:54:12.548Z,15.10
2018-07-12T01:56:41.100Z,15.20
2018-07-12T01:59:09.682Z,15.20
2018-07-12T02:01:38.235Z,15.20
2018-07-12T02:04:06.817Z,15.10
2018-07-12T02:06:35.362Z,15.10
2018-07-12T02:09:05.015Z,15.10
2018-07-12T02:11:33.583Z,15.10
2018-07-12T02:14:02.156Z,15.20
2018-07-12T02:16:30.739Z,15.20
2018-07-12T02:18:59.319Z,15.20
2018-07-12T02:21:27.870Z,15.10
2018-07-12T02:23:56.442Z,15.10
2018-07-12T02:26:24.990Z,15.10
2018-07-12T02:28:53.566Z,15.10
2018-07-12T02:31:22.111Z,15.20
2018-07-12T02:33:50.690Z,15.20
2018-07-12T02:36:19.267Z,15.20
2018-07-12T02:38:47.812Z,15.20
2018-07-12T02:41:16.377Z,15.20
2018-07-12T02:43:44.937Z,15.20
2018-07-12T02:46:13.531Z,15.30
2018-07-12T02:48:42.082Z,15.30
2018-07-12T02:51:10.661Z,15.30
2018-07-12T02:53:39.214Z,15.30
2018-07-12T02:56:07.778Z,15.20
2018-07-12T02:58:36.334Z,15.20
2018-07-12T03:01:04.906Z,15.20
2018-07-12T03:03:33.836Z,15.20
2018-07-12T03:06:03.209Z,15.20
2018-07-12T03:08:32.046Z,15.20
2018-07-12T03:11:00.652Z,15.30
2018-07-12T03:13:29.195Z,15.30
2018-07-12T03:15:57.775Z,15.30
2018-07-12T03:18:26.324Z,15.30
2018-07-12T03:20:54.894Z,15.30
2018-07-12T03:23:23.562Z,15.30
2018-07-12T03:25:52.149Z,15.30
2018-07-12T03:28:20.689Z,15.20
2018-07-12T03:30:49.288Z,15.20
2018-07-12T03:33:18.001Z,15.20
2018-07-12T03:35:47.000Z,15.30
2018-07-12T03:38:15.700Z,15.40
2018-07-12T03:40:44.266Z,15.30
2018-07-12T03:43:12.854Z,15.40
2018-07-12T03:45:41.398Z,15.40
2018-07-12T03:50:38.675Z,15.40
2018-07-12T03:53:07.302Z,15.40
2018-07-12T03:55:35.853Z,15.40
2018-07-12T03:58:04.456Z,15.40
2018-07-12T04:00:33.054Z,15.40
2018-07-12T04:03:01.626Z,15.50
2018-07-12T04:05:30.171Z,15.50
2018-07-12T04:07:58.738Z,15.50
2018-07-12T04:10:27.362Z,15.60
2018-07-12T04:12:55.934Z,15.60
2018-07-12T04:15:24.474Z,15.60
2018-07-12T04:17:53.060Z,15.60
2018-07-12T04:20:21.609Z,15.60
2018-07-12T04:22:50.191Z,15.70
2018-07-12T04:25:19.011Z,15.70
2018-07-12T04:27:47.689Z,15.70
2018-07-12T04:30:16.229Z,15.70
2018-07-12T04:32:44.779Z,15.70
2018-07-12T04:35:13.357Z,15.80
2018-07-12T04:37:41.925Z,15.80
2018-07-12T04:40:10.501Z,15.90
2018-07-12T04:42:39.059Z,16.00
2018-07-12T04:45:08.020Z,16.00
2018-07-12T04:47:36.586Z,16.00
2018-07-12T04:50:05.182Z,16.10
2018-07-12T04:52:33.954Z,16.10
2018-07-12T04:55:02.847Z,16.00
2018-07-12T04:57:31.428Z,16.00
2018-07-12T05:00:00.004Z,16.10
2018-07-12T05:02:28.866Z,16.10
2018-07-12T05:04:57.454Z,16.10
2018-07-12T05:07:26.000Z,16.20
2018-07-12T05:09:54.577Z,16.20
2018-07-12T05:12:23.119Z,16.30
2018-07-12T05:14:51.695Z,16.30
2018-07-12T05:17:20.441Z,16.30
2018-07-12T05:19:49.062Z,16.40
2018-07-12T05:22:18.693Z,16.30
2018-07-12T05:24:49.580Z,16.20
2018-07-12T05:27:18.128Z,16.20
2018-07-12T05:29:46.722Z,16.20
2018-07-12T05:32:15.287Z,16.20
2018-07-12T05:34:43.867Z,16.30
2018-07-12T05:37:14.106Z,16.50
2018-07-12T05:39:44.311Z,16.60
2018-07-12T05:42:14.530Z,16.70
2018-07-12T05:44:44.777Z,16.90
2018-07-12T05:47:14.995Z,17.10
2018-07-12T05:49:45.250Z,17.20
2018-07-12T05:52:15.459Z,17.20
2018-07-12T05:54:45.711Z,17.30
2018-07-12T05:57:15.913Z,17.30
2018-07-12T05:59:46.611Z,17.40
2018-07-12T06:02:21.090Z,17.40
2018-07-12T06:04:51.742Z,17.50
2018-07-12T06:07:27.055Z,17.60
2018-07-12T06:09:57.327Z,17.40
2018-07-12T06:12:27.835Z,17.30
2018-07-12T06:14:58.050Z,17.40
2018-07-12T06:17:28.328Z,17.50
2018-07-12T06:19:58.545Z,17.60
2018-07-12T06:22:28.811Z,17.70
2018-07-12T06:24:59.036Z,17.80
2018-07-12T06:27:29.358Z,17.80
2018-07-12T06:29:59.671Z,17.90
2018-07-12T06:32:29.884Z,17.90
2018-07-12T06:35:00.211Z,18.00
2018-07-12T06:37:30.499Z,18.20
2018-07-12T06:40:00.714Z,18.30
2018-07-12T06:42:30.963Z,18.40
2018-07-12T06:45:01.178Z,18.50
2018-07-12T06:47:31.444Z,18.50
2018-07-12T06:50:01.697Z,18.50
2018-07-12T06:52:32.019Z,18.70
2018-07-12T06:55:02.249Z,18.70
2018-07-12T06:57:32.591Z,18.70
2018-07-12T07:00:02.936Z,18.70
2018-07-12T07:02:33.554Z,18.50
2018-07-12T07:05:03.835Z,18.40
2018-07-12T07:07:34.070Z,18.40
2018-07-12T07:10:04.723Z,18.50
2018-07-12T07:12:34.981Z,18.50
2018-07-12T07:15:05.283Z,18.50
2018-07-12T07:17:35.860Z,18.50
2018-07-12T07:20:06.198Z,18.60
2018-07-12T07:22:36.993Z,18.60
2018-07-12T07:25:07.803Z,18.60
2018-07-12T07:27:38.111Z,18.60
2018-07-12T07:30:08.822Z,18.40
2018-07-12T07:32:39.141Z,18.40
2018-07-12T07:35:09.707Z,18.20
2018-07-12T07:37:40.028Z,18.20
2018-07-12T07:40:10.573Z,18.10
2018-07-12T07:42:40.874Z,18.10
2018-07-12T07:45:11.098Z,18.20
2018-07-12T07:47:41.406Z,18.30
2018-07-12T07:50:11.710Z,18.50
2018-07-12T07:52:46.722Z,18.60
2018-07-12T07:55:17.019Z,18.70
2018-07-12T07:57:47.395Z,18.80
2018-07-12T08:00:18.827Z,19.00
2018-07-12T08:02:49.130Z,19.20
2018-07-12T08:05:19.732Z,19.30
2018-07-12T08:07:50.246Z,19.50
2018-07-12T08:10:20.831Z,19.50
2018-07-12T08:12:51.898Z,19.60
2018-07-12T08:15:24.909Z,19.50
2018-07-12T08:18:06.895Z,19.50
2018-07-12T08:20:40.222Z,19.50
2018-07-12T08:23:11.737Z,19.70
2018-07-12T08:25:42.034Z,19.80
2018-07-12T08:28:25.650Z,19.90
2018-07-12T08:30:56.815Z,20.00
2018-07-12T08:33:27.207Z,20.20
2018-07-12T08:35:58.119Z,20.30
2018-07-12T08:38:29.029Z,20.30
2018-07-12T08:40:59.426Z,20.40
2018-07-12T08:43:29.834Z,20.30
2018-07-12T08:46:00.362Z,20.50
2018-07-12T08:48:30.893Z,20.40
2018-07-12T08:51:01.240Z,20.50
2018-07-12T08:53:31.730Z,20.70
2018-07-12T08:56:13.024Z,20.70
2018-07-12T08:58:49.092Z,20.70
2018-07-12T09:01:33.925Z,20.90
2018-07-12T09:04:06.663Z,21.30
2018-07-12T09:06:39.108Z,21.60
2018-07-12T09:09:17.867Z,22.00
2018-07-12T09:11:54.393Z,22.20
2018-07-12T09:14:27.816Z,22.40
2018-07-12T09:16:58.327Z,22.40
2018-07-12T09:19:28.734Z,22.50
2018-07-12T09:21:59.213Z,22.60
2018-07-12T09:24:29.550Z,22.60
2018-07-12T09:27:00.302Z,22.80
2018-07-12T09:29:31.211Z,22.70
2018-07-12T09:34:32.071Z,22.60
2018-07-12T09:37:02.969Z,22.70
2018-07-12T09:39:33.502Z,22.80
2018-07-12T09:42:03.791Z,22.90
2018-07-12T09:44:34.338Z,22.90
2018-07-12T09:47:04.897Z,23.20
2018-07-12T09:49:35.961Z,23.40
2018-07-12T09:52:36.816Z,23.50
2018-07-12T09:55:07.345Z,23.80
2018-07-12T09:57:54.640Z,23.90
2018-07-12T10:00:30.121Z,24.00
2018-07-12T10:03:05.423Z,24.30
2018-07-12T10:05:41.171Z,24.30
2018-07-12T10:08:16.773Z,24.40
2018-07-12T10:10:52.048Z,24.50
2018-07-12T10:13:25.318Z,24.40
2018-07-12T10:16:08.939Z,24.30
2018-07-12T10:18:39.399Z,24.60
2018-07-12T10:21:09.691Z,24.70
2018-07-12T10:23:40.057Z,24.60
2018-07-12T10:26:10.290Z,24.40
2018-07-12T10:28:40.515Z,24.50
2018-07-12T10:31:10.978Z,24.80
2018-07-12T10:33:41.280Z,25.20
2018-07-12T10:36:11.698Z,25.20
2018-07-12T10:38:42.333Z,25.10
2018-07-12T10:43:43.486Z,25.70
2018-07-12T10:46:13.687Z,26.00
2018-07-12T10:48:44.022Z,26.20
2018-07-12T10:51:14.447Z,26.20
2018-07-12T10:53:44.857Z,25.80
2018-07-12T10:56:15.117Z,25.50
2018-07-12T10:58:45.378Z,25.30
2018-07-12T11:01:15.695Z,25.20
2018-07-12T11:03:45.980Z,25.20
2018-07-12T11:06:18.928Z,25.30
2018-07-12T11:08:52.537Z,25.60
2018-07-12T11:11:23.497Z,26.00
2018-07-12T11:13:54.553Z,26.60
2018-07-12T11:16:25.046Z,27.00
2018-07-12T11:18:55.922Z,27.60
2018-07-12T11:21:29.026Z,28.10
2018-07-12T11:24:01.195Z,28.00
2018-07-12T11:26:31.731Z,27.90
2018-07-12T11:29:03.118Z,28.10
2018-07-12T11:31:38.496Z,28.50
2018-07-12T11:34:10.270Z,28.60
2018-07-12T11:36:40.798Z,28.40
2018-07-12T11:39:11.877Z,27.90
2018-07-12T11:41:42.159Z,27.50
2018-07-12T11:44:13.126Z,27.20
2018-07-12T11:46:43.611Z,27.00
2018-07-12T11:49:14.916Z,26.80
2018-07-12T11:51:45.762Z,26.90
2018-07-12T11:54:16.043Z,26.90
2018-07-12T11:56:46.263Z,26.70
2018-07-12T11:59:16.896Z,26.60
2018-07-12T12:01:47.413Z,26.30
2018-07-12T12:04:17.700Z,26.60
2018-07-12T12:06:47.996Z,27.50
2018-07-12T12:09:18.599Z,28.10
2018-07-12T12:11:48.837Z,28.30
2018-07-12T12:14:19.048Z,28.10
2018-07-12T12:16:49.319Z,27.90
2018-07-12T12:19:20.286Z,27.60
2018-07-12T12:21:50.632Z,27.70
2018-07-12T12:24:21.026Z,28.00
2018-07-12T12:26:51.401Z,27.90
2018-07-12T12:29:21.704Z,27.70
2018-07-12T12:31:52.013Z,27.50
2018-07-12T12:34:22.368Z,27.20
2018-07-12T12:36:52.718Z,27.10
2018-07-12T12:39:23.278Z,27.00
2018-07-12T12:41:53.777Z,27.50
2018-07-12T12:44:24.647Z,28.30
2018-07-12T12:46:55.187Z,29.10
2018-07-12T12:49:26.514Z,29.40
2018-07-12T12:51:57.108Z,29.70
2018-07-12T12:54:35.710Z,29.90
2018-07-12T12:57:06.140Z,30.00
2018-07-12T12:59:36.427Z,29.80
2018-07-12T13:02:06.867Z,29.60
2018-07-12T13:04:37.598Z,29.30
2018-07-12T13:07:07.848Z,29.10
2018-07-12T13:09:38.523Z,28.80
2018-07-12T13:12:11.823Z,28.40
2018-07-12T13:14:42.148Z,28.90
2018-07-12T13:17:12.859Z,30.00
2018-07-12T13:19:44.396Z,31.10
2018-07-12T13:22:14.773Z,32.00
2018-07-12T13:24:46.027Z,32.90
2018-07-12T13:27:17.036Z,33.60
2018-07-12T13:29:48.552Z,33.60
2018-07-12T13:32:26.084Z,33.30
2018-07-12T13:35:31.476Z,33.10
2018-07-12T13:38:09.195Z,33.00
2018-07-12T13:40:39.676Z,31.70
2018-07-12T13:43:10.016Z,30.90
2018-07-12T13:45:40.815Z,30.30
2018-07-12T13:48:11.791Z,29.60
2018-07-12T13:51:11.825Z,29.10
2018-07-12T13:53:43.402Z,28.60
2018-07-12T13:56:14.748Z,28.20
2018-07-12T13:58:46.063Z,27.90
2018-07-12T14:01:17.832Z,27.70
2018-07-12T14:03:49.087Z,27.50
2018-07-12T14:06:21.293Z,27.30
2018-07-12T14:08:53.007Z,27.50
2018-07-12T14:11:25.187Z,28.40
2018-07-12T14:13:56.561Z,29.00
2018-07-12T14:16:33.868Z,29.70
2018-07-12T14:19:05.618Z,29.80
2018-07-12T14:21:36.423Z,29.80
2018-07-12T14:24:16.112Z,30.30
2018-07-12T14:26:58.888Z,30.40
2018-07-12T14:34:52.455Z,30.40
2018-07-12T14:43:03.815Z,28.40
2018-07-12T14:45:46.332Z,27.90
2018-07-12T14:48:26.173Z,27.80
2018-07-12T14:51:04.474Z,28.30
2018-07-12T14:53:39.630Z,28.70
2018-07-12T14:56:10.198Z,28.90
2018-07-12T14:58:40.450Z,29.50
2018-07-12T15:01:21.450Z,30.30
2018-07-12T15:03:54.487Z,30.70
2018-07-12T15:06:28.875Z,31.10
2018-07-12T15:08:59.133Z,31.40
2018-07-12T15:11:31.359Z,31.60
2018-07-12T15:14:02.046Z,31.90
2018-07-12T15:16:32.247Z,31.30
2018-07-12T15:19:05.033Z,30.70
2018-07-12T15:27:50.929Z,29.00
2018-07-12T15:30:21.615Z,28.70
2018-07-12T15:32:51.837Z,28.70
2018-07-12T15:35:22.198Z,28.90
2018-07-12T15:37:52.666Z,29.00
2018-07-12T15:40:23.057Z,28.80
2018-07-12T15:42:53.323Z,28.50
2018-07-12T15:45:23.757Z,28.10
2018-07-12T15:47:54.471Z,27.90
2018-07-12T15:50:26.908Z,27.70
2018-07-12T15:52:57.254Z,27.40
2018-07-12T15:55:27.912Z,27.30
2018-07-12T15:57:58.191Z,27.20
2018-07-12T16:00:28.775Z,27.10
2018-07-12T16:02:59.047Z,26.90
2018-07-12T16:05:29.297Z,26.90
2018-07-12T16:07:59.615Z,26.80
2018-07-12T16:10:29.950Z,26.60
2018-07-12T16:13:00.906Z,26.50
2018-07-12T16:15:31.180Z,26.60
2018-07-12T16:18:01.467Z,27.10
2018-07-12T16:20:31.779Z,27.80
2018-07-12T16:23:04.740Z,28.40
2018-07-12T16:25:35.599Z,28.80
2018-07-12T16:28:07.613Z,29.50
2018-07-12T16:30:37.938Z,29.70
2018-07-12T16:33:10.847Z,29.60
2018-07-12T16:35:43.612Z,29.30
2018-07-12T16:38:16.822Z,29.00
2018-07-12T16:40:49.753Z,28.70
2018-07-12T16:43:22.729Z,28.30
2018-07-12T16:45:55.397Z,27.90
2018-07-12T16:48:26.139Z,27.50
2018-07-12T16:50:57.228Z,27.20
2018-07-12T16:53:29.146Z,27.20
2018-07-12T16:55:59.599Z,27.00
2018-07-12T16:58:30.862Z,27.00
2018-07-12T17:01:05.864Z,26.90
2018-07-12T17:03:39.775Z,27.00
2018-07-12T17:06:10.220Z,26.70
2018-07-12T17:08:41.252Z,26.70
2018-07-12T17:11:11.553Z,26.60
2018-07-12T17:13:41.886Z,26.50
2018-07-12T17:16:15.560Z,26.40
2018-07-12T17:18:46.178Z,26.40
2018-07-12T17:21:17.145Z,26.30
2018-07-12T17:23:48.699Z,26.20
2018-07-12T17:26:19.257Z,25.90
2018-07-12T17:28:50.046Z,25.90
2018-07-12T17:31:20.643Z,25.90
2018-07-12T17:33:52.067Z,25.80
2018-07-12T17:36:22.591Z,25.70
2018-07-12T17:38:52.883Z,25.70
2018-07-12T17:41:23.831Z,25.60
2018-07-12T17:43:55.146Z,25.40
2018-07-12T17:46:25.517Z,25.20
2018-07-12T17:48:55.853Z,24.80
2018-07-12T17:51:26.090Z,24.70
2018-07-12T17:53:56.869Z,24.50
2018-07-12T17:56:27.495Z,24.40
2018-07-12T17:58:58.572Z,24.20
2018-07-12T18:01:30.980Z,24.20
2018-07-12T18:04:01.488Z,24.10
2018-07-12T18:06:31.999Z,23.90
2018-07-12T18:09:02.844Z,23.70
2018-07-12T18:11:37.227Z,23.50
2018-07-12T18:14:08.151Z,23.40
2018-07-12T18:16:39.243Z,23.30
2018-07-12T18:19:10.518Z,23.10
2018-07-12T18:21:41.046Z,22.90
2018-07-12T18:24:11.981Z,22.80
2018-07-12T18:26:42.827Z,22.70
2018-07-12T18:29:14.538Z,22.50
2018-07-12T18:31:45.185Z,22.40
2018-07-12T18:34:15.912Z,22.40
2018-07-12T18:36:48.234Z,22.30
2018-07-12T18:39:21.701Z,22.20
2018-07-12T18:41:52.026Z,22.10
2018-07-12T18:44:22.403Z,22.00
2018-07-12T18:46:52.905Z,21.80
2018-07-12T18:49:23.384Z,21.60
2018-07-12T18:51:53.716Z,21.30
2018-07-12T18:54:23.952Z,21.10
2018-07-12T18:56:54.415Z,20.80
2018-07-12T18:59:24.852Z,20.70
2018-07-12T19:01:55.099Z,20.50
2018-07-12T19:04:25.417Z,20.30
2018-07-12T19:06:56.359Z,20.20
2018-07-12T19:09:26.821Z,20.10
2018-07-12T19:11:57.120Z,20.00
2018-07-12T19:14:31.714Z,19.90
2018-07-12T19:17:10.822Z,19.80
2018-07-12T19:19:41.893Z,19.70
2018-07-12T19:22:13.283Z,19.60
2018-07-12T19:25:20.151Z,19.60
2018-07-12T19:31:23.473Z,19.50
2018-07-12T19:33:59.820Z,19.40
2018-07-12T19:36:38.755Z,19.30
2018-07-12T19:39:11.430Z,19.20
2018-07-12T19:41:46.928Z,19.10
2018-07-12T19:44:28.797Z,19.00
2018-07-12T19:47:02.937Z,19.00
2018-07-12T19:49:36.031Z,18.80
2018-07-12T19:52:10.148Z,18.70
2018-07-12T19:54:41.934Z,18.50
2018-07-12T19:57:13.275Z,18.30
2018-07-12T19:59:44.455Z,18.30
2018-07-12T20:02:14.770Z,18.20
2018-07-12T20:04:45.508Z,18.10
2018-07-12T20:07:15.907Z,18.00
2018-07-12T20:09:46.379Z,17.90
2018-07-12T20:12:17.356Z,17.70
2018-07-12T20:14:48.547Z,17.60
2018-07-12T20:17:18.877Z,17.50
2018-07-12T20:19:49.641Z,17.50
2018-07-12T20:22:20.132Z,17.40
2018-07-12T20:24:50.783Z,17.30
2018-07-12T20:27:21.915Z,17.30
2018-07-12T20:29:54.806Z,17.20
2018-07-12T20:32:26.440Z,17.20
2018-07-12T20:34:58.296Z,17.00
2018-07-12T20:37:31.616Z,17.00
2018-07-12T20:40:11.468Z,17.00
2018-07-12T20:42:48.343Z,16.90
2018-07-12T20:45:18.854Z,16.90
2018-07-12T20:47:49.202Z,16.80
2018-07-12T20:50:21.878Z,16.70
2018-07-12T20:52:52.395Z,16.70
2018-07-12T20:55:22.675Z,16.70
2018-07-12T20:57:53.323Z,16.70
2018-07-12T21:00:24.386Z,16.60
2018-07-12T21:02:55.610Z,16.50
2018-07-12T21:05:27.952Z,16.50
2018-07-12T21:08:00.165Z,16.40
2018-07-12T21:10:32.346Z,16.30
2018-07-12T21:13:04.746Z,16.40
2018-07-12T21:15:35.960Z,16.40
2018-07-12T21:18:07.285Z,16.50
2018-07-12T21:20:38.462Z,16.40
2018-07-12T21:23:12.768Z,16.20
2018-07-12T21:25:47.356Z,16.20
2018-07-12T21:28:18.521Z,16.10
2018-07-12T21:30:50.661Z,16.10
2018-07-12T21:33:22.122Z,16.00
2018-07-12T21:35:52.965Z,16.00
2018-07-12T21:38:24.571Z,15.90
2018-07-12T21:40:56.139Z,15.90
2018-07-12T21:48:53.603Z,15.70
2018-07-12T22:00:23.220Z,15.50
2018-07-12T22:02:56.349Z,15.50
2018-07-12T22:05:33.263Z,15.30
2018-07-12T22:08:31.566Z,15.20
2018-07-12T22:11:41.889Z,15.10
2018-07-12T22:14:13.350Z,15.10
2018-07-12T22:16:44.167Z,15.10
2018-07-12T22:19:48.067Z,15.00
2018-07-12T22:23:20.299Z,15.00
2018-07-12T22:34:19.309Z,14.90
2018-07-12T22:37:06.330Z,14.80
2018-07-12T22:39:37.709Z,14.90
2018-07-12T22:42:09.803Z,14.90
2018-07-12T22:44:40.892Z,15.00
2018-07-12T22:47:12.111Z,15.00
2018-07-12T22:49:47.369Z,15.00
2018-07-12T22:52:21.264Z,15.00
2018-07-12T22:54:52.560Z,15.00
2018-07-12T22:57:23.057Z,15.00
2018-07-12T22:59:54.841Z,15.00
2018-07-12T23:02:25.135Z,15.00
2018-07-12T23:04:55.388Z,15.10
2018-07-12T23:09:56.039Z,15.00
2018-07-12T23:12:27.244Z,15.00
2018-07-12T23:14:58.552Z,14.90
2018-07-12T23:17:31.612Z,14.80
2018-07-12T23:20:01.927Z,14.70
2018-07-12T23:22:33.309Z,14.60
2018-07-12T23:25:04.840Z,14.60
2018-07-12T23:27:35.031Z,14.60
2018-07-12T23:30:09.599Z,14.60
2018-07-12T23:32:39.847Z,14.70
2018-07-12T23:35:10.173Z,14.60
2018-07-12T23:37:40.641Z,14.70
2018-07-12T23:40:11.014Z,14.70
2018-07-12T23:45:18.897Z,14.60
2018-07-12T23:47:51.178Z,14.60
2018-07-12T23:50:21.530Z,14.60
2018-07-12T23:52:52.208Z,14.60
2018-07-12T23:55:24.206Z,14.50
2018-07-12T23:58:00.211Z,14.50
